Time;durP1;ratioP1;P1;durP2;ratioP2;P2;SDS_P1;SDS_P2;PMS_P1;PMS_P2;Temp;Humidity;BMP_temperature;BMP_pressure;BME280_temperature;BME280_humidity;BME280_pressure;Samples;Min_cycle;Max_cycle;Signal;HPM_P1;HPM_P2
2023/04/08 04:22:33;;;;;;;17.13;7.63;;;;;;;8.25;100.00;100632.38;5089442;28;20747;-64
2023/04/08 04:24:58;;;;;;;16.55;8.30;;;;;;;8.32;100.00;100636.09;5089534;28;20040;-64
2023/04/08 04:27:23;;;;;;;18.10;9.35;;;;;;;8.37;100.00;100636.53;5087713;28;20032;-63
2023/04/08 04:29:49;;;;;;;20.90;8.13;;;;;;;8.33;100.00;100638.59;5089403;28;20378;-64
2023/04/08 04:32:14;;;;;;;20.73;8.48;;;;;;;8.39;100.00;100637.22;5089437;28;20032;-64
2023/04/08 04:34:40;;;;;;;19.27;8.25;;;;;;;8.32;100.00;100639.59;5089336;28;20044;-61
2023/04/08 04:37:06;;;;;;;13.15;6.90;;;;;;;8.41;100.00;100644.06;5088934;28;20044;-64
2023/04/08 04:39:31;;;;;;;21.50;6.80;;;;;;;8.39;100.00;100646.00;5089262;28;20051;-63
2023/04/08 04:41:56;;;;;;;17.98;7.32;;;;;;;8.31;100.00;100643.25;5089079;28;20051;-64
2023/04/08 04:44:22;;;;;;;14.40;6.82;;;;;;;8.33;100.00;100635.94;5089079;28;20111;-64
2023/04/08 04:46:48;;;;;;;18.13;8.60;;;;;;;8.33;100.00;100641.25;5088904;28;20039;-63
2023/04/08 04:49:13;;;;;;;19.15;8.27;;;;;;;8.26;100.00;100647.31;5088824;28;20108;-64
2023/04/08 04:51:39;;;;;;;20.08;7.40;;;;;;;8.31;100.00;100651.19;5089000;28;20481;-64
2023/04/08 04:54:04;;;;;;;17.00;7.40;;;;;;;8.31;100.00;100653.03;5088977;28;20036;-64
2023/04/08 04:56:29;;;;;;;19.42;8.05;;;;;;;8.32;100.00;100658.19;5088904;28;20390;-64
2023/04/08 04:58:55;;;;;;;15.95;7.50;;;;;;;8.33;100.00;100646.56;5088472;28;20076;-63
2023/04/08 05:01:20;;;;;;;18.58;7.20;;;;;;;8.39;100.00;100659.28;5088764;28;20150;-63
2023/04/08 05:03:46;;;;;;;19.05;6.82;;;;;;;8.35;100.00;100655.28;5088904;28;20040;-64
2023/04/08 05:06:11;;;;;;;16.30;7.50;;;;;;;8.35;100.00;100663.25;5088724;28;20085;-63
2023/04/08 05:08:37;;;;;;;18.23;7.20;;;;;;;8.33;100.00;100662.50;5088331;28;20040;-63
2023/04/08 05:11:02;;;;;;;18.63;8.45;;;;;;;8.35;100.00;100670.34;5088682;28;20508;-64
2023/04/08 05:13:28;;;;;;;17.67;8.20;;;;;;;8.38;100.00;100665.56;5088519;28;20115;-63
2023/04/08 05:15:53;;;;;;;18.63;8.38;;;;;;;8.35;100.00;100679.16;5088387;28;20052;-64
2023/04/08 05:18:19;;;;;;;14.95;6.68;;;;;;;8.40;100.00;100670.72;5088201;28;20051;-63
2023/04/08 05:20:45;;;;;;;16.38;7.30;;;;;;;8.42;100.00;100671.44;5088286;28;20040;-64
2023/04/08 05:23:10;;;;;;;21.10;7.75;;;;;;;8.46;100.00;100674.63;5088380;28;20170;-64
2023/04/08 05:25:36;;;;;;;18.20;7.00;;;;;;;8.49;100.00;100682.31;5088338;28;20103;-62
2023/04/08 05:28:02;;;;;;;14.52;6.88;;;;;;;8.51;100.00;100682.97;5087916;28;20397;-63
2023/04/08 05:30:27;;;;;;;17.70;7.43;;;;;;;8.54;100.00;100680.00;5088162;28;20028;-62
2023/04/08 05:32:53;;;;;;;18.67;7.88;;;;;;;8.49;100.00;100682.31;5080617;28;20596;-64
2023/04/08 05:35:18;;;;;;;21.25;7.28;;;;;;;8.50;100.00;100681.31;5074617;28;20035;-64
2023/04/08 05:37:43;;;;;;;21.65;7.18;;;;;;;8.53;100.00;100681.81;5074388;28;20037;-63
2023/04/08 05:40:09;;;;;;;19.25;7.32;;;;;;;8.56;100.00;100686.03;5074482;28;20044;-62
2023/04/08 05:42:34;;;;;;;18.58;8.00;;;;;;;8.62;100.00;100690.75;5074524;28;20044;-64
2023/04/08 05:45:00;;;;;;;17.02;7.85;;;;;;;8.63;100.00;100690.59;5074358;28;20101;-63
2023/04/08 05:47:25;;;;;;;13.18;6.65;;;;;;;8.62;100.00;100702.19;5073803;28;20039;-64
2023/04/08 05:49:51;;;;;;;21.98;8.13;;;;;;;8.65;100.00;100693.09;5074355;28;20040;-64
2023/04/08 05:52:17;;;;;;;18.90;6.88;;;;;;;8.67;100.00;100697.28;5074437;28;20028;-64
2023/04/08 05:54:43;;;;;;;20.23;7.80;;;;;;;8.73;100.00;100698.47;5074334;28;20587;-64
2023/04/08 05:57:08;;;;;;;15.32;7.07;;;;;;;8.74;100.00;100699.31;5073864;28;20080;-62
2023/04/08 05:59:34;;;;;;;13.38;6.78;;;;;;;8.69;100.00;100695.28;5074180;28;20047;-62
2023/04/08 06:01:59;;;;;;;17.65;7.10;;;;;;;8.73;100.00;100701.13;5074119;28;20032;-61
2023/04/08 06:04:25;;;;;;;15.15;7.50;;;;;;;8.67;100.00;100709.69;5074076;28;20071;-63
2023/04/08 06:06:50;;;;;;;17.27;7.25;;;;;;;8.66;100.00;100706.19;5073923;28;20087;-59
2023/04/08 06:09:16;;;;;;;15.82;8.18;;;;;;;8.73;100.00;100706.44;5073976;28;20036;-58
2023/04/08 06:11:41;;;;;;;15.90;7.25;;;;;;;8.76;100.00;100707.97;5074038;28;20068;-56
2023/04/08 06:14:06;;;;;;;17.15;6.97;;;;;;;8.80;100.00;100710.19;5073949;28;20075;-58
2023/04/08 06:16:32;;;;;;;19.88;8.40;;;;;;;8.80;100.00;100715.50;5073873;28;20080;-58
2023/04/08 06:18:57;;;;;;;17.48;8.20;;;;;;;8.76;100.00;100713.28;5073545;28;20033;-57
2023/04/08 06:21:23;;;;;;;17.02;8.38;;;;;;;8.84;100.00;100716.84;5073667;28;20374;-60
2023/04/08 06:23:48;;;;;;;19.05;8.48;;;;;;;8.88;100.00;100715.59;5073908;28;20038;-60
2023/04/08 06:26:14;;;;;;;20.05;8.20;;;;;;;8.91;100.00;100717.94;5073554;28;20377;-60
2023/04/08 06:28:39;;;;;;;16.75;8.38;;;;;;;8.89;100.00;100717.25;5073391;28;20047;-60
2023/04/08 06:31:05;;;;;;;16.20;7.97;;;;;;;8.96;100.00;100720.13;5073641;28;20040;-58
2023/04/08 06:33:30;;;;;;;18.67;8.63;;;;;;;8.91;100.00;100714.44;5073655;28;20049;-60
2023/04/08 06:36:03;;;;;;;15.25;7.65;;;;;;;9.01;100.00;100722.34;5072249;28;20070;-60
2023/04/08 06:38:28;;;;;;;15.68;7.55;;;;;;;8.96;100.00;100718.31;5073167;28;20093;-60
2023/04/08 06:40:55;;;;;;;15.38;7.28;;;;;;;9.01;100.00;100727.66;5073318;28;20037;-56
2023/04/08 06:43:20;;;;;;;17.00;8.38;;;;;;;9.02;100.00;100732.81;5073247;28;20085;-60
2023/04/08 06:45:46;;;;;;;15.20;8.15;;;;;;;9.02;100.00;100731.97;5072431;28;20115;-60
2023/04/08 06:48:11;;;;;;;13.50;6.43;;;;;;;9.11;100.00;100736.38;5073108;28;20059;-60
2023/04/08 06:50:37;;;;;;;15.75;7.78;;;;;;;9.14;100.00;100736.09;5073313;28;20036;-60
2023/04/08 06:53:02;;;;;;;15.63;7.13;;;;;;;9.19;100.00;100734.66;5073228;28;20109;-60
2023/04/08 06:55:27;;;;;;;13.02;6.05;;;;;;;9.23;100.00;100737.81;5073125;28;20043;-56
2023/04/08 06:57:53;;;;;;;13.52;5.90;;;;;;;9.18;100.00;100740.09;5072838;28;20703;-59
2023/04/08 07:00:18;;;;;;;15.75;6.25;;;;;;;9.30;100.00;100743.38;5072932;28;20036;-60
2023/04/08 07:02:43;;;;;;;14.02;5.72;;;;;;;9.38;100.00;100744.25;5073094;28;20719;-58
2023/04/08 07:05:09;;;;;;;18.85;7.07;;;;;;;9.26;100.00;100742.84;5072820;28;20465;-60
2023/04/08 07:07:35;;;;;;;14.60;5.80;;;;;;;9.25;100.00;100742.00;5072646;28;20051;-60
2023/04/08 07:10:00;;;;;;;22.83;7.22;;;;;;;9.39;100.00;100751.28;5072877;28;20044;-60
2023/04/08 07:12:25;;;;;;;12.98;6.80;;;;;;;9.37;100.00;100747.91;5072826;28;20036;-60
2023/04/08 07:14:52;;;;;;;12.23;6.82;;;;;;;9.46;100.00;100752.31;5072627;28;20048;-57
2023/04/08 07:17:17;;;;;;;14.40;6.82;;;;;;;9.45;100.00;100750.66;5072375;28;20123;-59
2023/04/08 07:19:43;;;;;;;13.10;6.15;;;;;;;9.50;100.00;100759.00;5072657;28;20112;-58
2023/04/08 07:22:08;;;;;;;12.30;5.78;;;;;;;9.46;100.00;100747.00;5072489;28;20035;-59
2023/04/08 07:24:34;;;;;;;14.30;6.38;;;;;;;9.39;100.00;100745.09;5072616;28;20048;-59
2023/04/08 07:26:59;;;;;;;14.10;7.07;;;;;;;9.49;100.00;100759.97;5072107;28;20040;-58
2023/04/08 07:29:25;;;;;;;17.42;7.75;;;;;;;9.55;100.00;100760.38;5072791;28;20040;-60
2023/04/08 07:31:50;;;;;;;17.65;6.68;;;;;;;9.68;100.00;100755.47;5072412;28;20036;-58
2023/04/08 07:34:16;;;;;;;13.68;6.97;;;;;;;9.70;100.00;100764.97;5072484;28;20047;-60
2023/04/08 07:36:41;;;;;;;17.67;6.75;;;;;;;9.84;98.38;100760.06;5072264;28;20033;-56
2023/04/08 07:39:07;;;;;;;14.80;7.15;;;;;;;9.89;98.45;100766.59;5072080;28;20440;-60
2023/04/08 07:41:32;;;;;;;14.18;6.38;;;;;;;9.91;98.46;100761.13;5072199;28;20098;-58
2023/04/08 07:43:57;;;;;;;13.88;6.05;;;;;;;10.06;97.83;100768.38;5072409;28;20044;-58
2023/04/08 07:46:23;;;;;;;12.50;6.22;;;;;;;9.99;95.67;100763.84;5072153;28;20045;-57
2023/04/08 07:48:48;;;;;;;9.32;5.20;;;;;;;10.06;96.69;100763.06;5071980;28;20047;-56
2023/04/08 07:51:14;;;;;;;8.80;5.15;;;;;;;10.24;96.89;100767.53;5062361;28;20409;-60
2023/04/08 07:53:39;;;;;;;9.68;5.28;;;;;;;10.36;93.37;100770.72;5061019;28;20539;-59
2023/04/08 07:56:12;;;;;;;9.15;4.93;;;;;;;10.27;92.00;100767.19;5056375;28;20037;-60
2023/04/08 07:58:39;;;;;;;13.18;6.63;;;;;;;10.21;94.92;100770.47;5051815;28;20045;-62
2023/04/08 08:01:14;;;;;;;9.80;5.25;;;;;;;10.41;94.51;100777.25;5051688;28;20497;-57
2023/04/08 08:03:39;;;;;;;10.13;5.07;;;;;;;10.60;90.94;100770.84;5060370;28;20035;-56
2023/04/08 08:06:05;;;;;;;11.63;5.35;;;;;;;10.84;88.64;100775.44;5061607;28;20033;-57
2023/04/08 08:08:32;;;;;;;10.35;5.60;;;;;;;10.71;90.15;100778.56;5053826;28;20393;-57
2023/04/08 08:10:57;;;;;;;12.00;6.45;;;;;;;10.57;90.87;100790.66;5051757;28;20044;-60
2023/04/08 08:13:23;;;;;;;11.13;5.22;;;;;;;10.67;87.89;100781.69;5050975;28;20037;-59
2023/04/08 08:15:52;;;;;;;11.07;5.80;;;;;;;10.40;87.69;100794.22;5051799;28;20493;-60
2023/04/08 08:18:17;;;;;;;11.20;5.72;;;;;;;10.54;88.60;100796.28;5051664;28;20402;-60
2023/04/08 08:20:42;;;;;;;9.68;5.20;;;;;;;10.82;87.48;100785.38;5051733;28;20037;-57
2023/04/08 08:23:08;;;;;;;11.10;5.47;;;;;;;10.87;83.91;100793.75;5051779;28;20049;-60
2023/04/08 08:25:33;;;;;;;13.20;5.70;;;;;;;10.85;86.03;100787.75;5051673;28;20048;-56
2023/04/08 08:27:59;;;;;;;11.10;5.68;;;;;;;10.78;87.47;100787.56;5051517;28;20111;-57
2023/04/08 08:30:25;;;;;;;12.80;6.78;;;;;;;10.74;84.22;100788.03;5051783;28;20041;-56
2023/04/08 08:32:51;;;;;;;11.48;6.47;;;;;;;10.90;83.63;100788.09;5051920;28;20406;-59
2023/04/08 08:35:16;;;;;;;10.02;5.75;;;;;;;11.18;86.68;100790.50;5051642;28;20057;-47
2023/04/08 08:37:42;;;;;;;9.65;6.35;;;;;;;10.99;81.25;100797.78;5051408;28;20144;-49
2023/04/08 08:40:07;;;;;;;13.10;5.90;;;;;;;11.06;80.43;100795.31;5051658;28;20098;-50
2023/04/08 08:42:33;;;;;;;13.48;6.47;;;;;;;11.17;82.83;100799.50;5051709;28;20112;-50
2023/04/08 08:45:02;;;;;;;8.93;5.70;;;;;;;11.24;83.59;100795.19;5051726;28;20028;-49
2023/04/08 08:47:28;;;;;;;11.27;6.55;;;;;;;11.49;80.22;100791.53;5051249;28;20075;-50
2023/04/08 08:49:53;;;;;;;8.63;6.15;;;;;;;11.84;81.94;100792.22;5033895;28;20107;-50
2023/04/08 08:52:19;;;;;;;10.50;6.63;;;;;;;11.48;78.69;100795.22;5051450;28;20399;-62
2023/04/08 08:54:45;;;;;;;10.98;6.60;;;;;;;11.75;80.18;100801.22;5051595;28;20029;-62
2023/04/08 08:57:19;;;;;;;10.95;5.93;;;;;;;11.56;80.77;100797.88;5051246;28;20463;-61
2023/04/08 08:59:49;;;;;;;10.65;5.50;;;;;;;11.60;80.10;100799.19;5051545;28;20045;-61
2023/04/08 09:02:30;;;;;;;8.68;6.00;;;;;;;11.88;80.36;100791.72;5051481;28;20033;-61
2023/04/08 09:04:57;;;;;;;6.68;5.10;;;;;;;12.14;72.86;100802.22;5051426;28;20032;-61
2023/04/08 09:07:25;;;;;;;10.23;5.57;;;;;;;12.34;70.93;100801.84;5051512;28;20075;-62
2023/04/08 09:09:52;;;;;;;8.23;5.45;;;;;;;12.53;71.11;100801.44;5055278;28;20045;-64
2023/04/08 09:12:18;;;;;;;8.23;5.38;;;;;;;12.76;73.62;100801.50;5055060;28;20041;-57
2023/04/08 09:14:43;;;;;;;11.18;5.97;;;;;;;12.87;71.23;100798.44;5055050;28;20094;-52
2023/04/08 09:17:09;;;;;;;9.32;6.07;;;;;;;12.79;69.67;100800.34;5054623;28;20036;-50
2023/04/08 09:19:35;;;;;;;8.25;5.03;;;;;;;13.27;67.44;100797.41;5055043;28;20037;-55
2023/04/08 09:22:08;;;;;;;6.85;4.97;;;;;;;13.39;71.16;100802.34;5054814;28;20379;-52
2023/04/08 09:24:35;;;;;;;10.40;5.32;;;;;;;13.16;68.65;100794.28;5054953;28;20128;-54
2023/04/08 09:27:01;;;;;;;7.50;4.30;;;;;;;13.29;67.23;100791.88;5054650;28;20490;-48
2023/04/08 09:29:26;;;;;;;6.45;4.50;;;;;;;13.16;67.10;100792.41;5054751;28;20043;-60
2023/04/08 09:31:57;;;;;;;7.65;4.68;;;;;;;13.00;66.26;100793.38;5054729;28;20116;-59
2023/04/08 09:34:23;;;;;;;6.88;4.65;;;;;;;13.00;68.43;100801.38;5054809;28;20106;-62
2023/04/08 09:36:49;;;;;;;7.35;5.20;;;;;;;13.02;66.55;100795.84;5054028;28;20099;-61
2023/04/08 09:39:15;;;;;;;6.25;4.38;;;;;;;13.33;69.04;100800.38;5054458;28;20076;-61
2023/04/08 09:41:42;;;;;;;7.70;5.20;;;;;;;13.63;61.91;100796.81;5054624;28;20052;-61
2023/04/08 09:44:09;;;;;;;8.05;4.90;;;;;;;13.56;64.64;100795.84;5054579;28;20045;-61
2023/04/08 09:46:53;;;;;;;6.32;4.28;;;;;;;13.63;64.69;100791.47;5054438;28;20037;-60
2023/04/08 09:49:24;;;;;;;6.75;4.53;;;;;;;13.50;65.29;100791.25;5054368;28;20037;-60
2023/04/08 09:52:11;;;;;;;7.05;4.72;;;;;;;13.44;63.18;100794.63;5054349;28;20047;-61
2023/04/08 09:54:54;;;;;;;6.03;4.22;;;;;;;13.84;58.42;100798.81;5054445;28;20037;-62
2023/04/08 09:57:45;;;;;;;5.57;4.28;;;;;;;13.72;58.98;100794.91;5054059;28;20041;-62
2023/04/08 10:00:16;;;;;;;7.38;4.38;;;;;;;13.94;58.44;100801.22;5054357;28;20040;-59
2023/04/08 10:02:45;;;;;;;7.70;5.43;;;;;;;13.50;57.35;100799.28;5054350;28;20069;-61
2023/04/08 10:05:12;;;;;;;7.50;4.70;;;;;;;13.70;57.95;100805.81;5054956;28;20043;-61
2023/04/08 10:07:38;;;;;;;6.63;4.35;;;;;;;13.67;58.71;100805.31;5071827;28;20366;-60
2023/04/08 10:10:05;;;;;;;7.72;4.95;;;;;;;13.92;58.16;100803.25;5074160;28;20094;-59
2023/04/08 10:12:31;;;;;;;5.68;4.40;;;;;;;14.18;57.65;100806.34;5073966;28;20102;-62
2023/04/08 10:15:24;;;;;;;6.55;4.45;;;;;;;14.08;57.12;100805.78;5074071;28;20043;-59
2023/04/08 10:17:51;;;;;;;6.25;4.25;;;;;;;13.90;58.24;100800.78;5073591;28;20044;-61
2023/04/08 10:20:43;;;;;;;10.05;5.22;;;;;;;14.09;55.19;100799.44;5073721;28;20039;-61
2023/04/08 10:23:12;;;;;;;6.40;4.60;;;;;;;14.33;56.68;100796.47;5072009;28;20425;-61
2023/04/08 10:25:42;;;;;;;5.88;4.50;;;;;;;14.63;57.97;100802.69;5073753;28;20171;-62
2023/04/08 10:28:10;;;;;;;7.10;4.78;;;;;;;14.06;57.15;100800.59;5073488;28;20036;-61
2023/04/08 10:31:00;;;;;;;7.65;4.85;;;;;;;14.26;56.83;100800.91;5073720;28;20537;-62
2023/04/08 10:33:28;;;;;;;8.25;4.68;;;;;;;14.16;56.38;100795.00;5073410;28;20090;-61
2023/04/08 10:36:05;;;;;;;5.65;4.38;;;;;;;14.18;51.26;100801.00;5073696;28;20045;-58
2023/04/08 10:38:31;;;;;;;5.88;4.32;;;;;;;14.32;53.43;100792.13;5073301;28;20029;-62
2023/04/08 10:40:57;;;;;;;6.53;4.55;;;;;;;14.65;51.59;100799.81;5073571;28;20383;-62
2023/04/08 10:43:23;;;;;;;7.10;4.70;;;;;;;15.06;53.30;100792.09;5073410;28;20040;-62
2023/04/08 10:45:50;;;;;;;5.57;4.00;;;;;;;15.24;52.47;100785.44;5073395;28;20039;-63
2023/04/08 10:48:17;;;;;;;6.10;4.35;;;;;;;15.40;48.12;100794.09;5073103;28;20043;-61
2023/04/08 10:50:59;;;;;;;7.70;4.43;;;;;;;15.09;46.96;100786.34;5067271;28;20033;-62
2023/04/08 10:53:29;;;;;;;6.07;4.30;;;;;;;14.51;51.68;100789.94;5053350;28;20037;-61
2023/04/08 10:56:09;;;;;;;6.45;4.25;;;;;;;15.07;46.04;100784.88;5053168;28;20044;-62
2023/04/08 10:58:35;;;;;;;6.38;4.40;;;;;;;15.11;45.50;100778.09;5052758;28;20072;-59
2023/04/08 11:01:07;;;;;;;5.88;3.95;;;;;;;15.13;44.26;100786.81;5053197;28;20032;-61
2023/04/08 11:03:34;;;;;;;7.35;4.25;;;;;;;15.34;42.98;100781.44;5052961;28;20072;-61
2023/04/08 11:06:01;;;;;;;6.93;4.60;;;;;;;14.82;44.53;100773.66;5052950;28;20040;-61
2023/04/08 11:08:32;;;;;;;6.80;4.57;;;;;;;14.88;47.43;100780.94;5052715;28;20037;-61
2023/04/08 11:11:02;;;;;;;6.75;4.35;;;;;;;14.55;50.22;100783.22;5052886;28;20067;-60
2023/04/08 11:13:29;;;;;;;4.95;4.13;;;;;;;14.64;50.39;100784.75;5052950;28;20402;-60
2023/04/08 11:15:57;;;;;;;5.45;4.10;;;;;;;14.50;50.10;100785.59;5052822;28;20410;-60
2023/04/08 11:18:23;;;;;;;4.93;3.78;;;;;;;13.88;52.48;100783.22;5052361;28;20122;-62
2023/04/08 11:20:50;;;;;;;6.10;4.40;;;;;;;13.64;54.62;100784.28;5052528;28;20096;-60
2023/04/08 11:23:16;;;;;;;5.60;3.97;;;;;;;13.63;55.85;100779.91;5052573;28;20070;-61
2023/04/08 11:25:43;;;;;;;5.85;5.10;;;;;;;13.61;55.65;100781.94;5052450;28;20037;-61
2023/04/08 11:28:09;;;;;;;5.80;4.50;;;;;;;13.45;55.15;100780.25;5052296;28;20037;-62
2023/04/08 11:30:35;;;;;;;6.35;4.07;;;;;;;13.49;47.83;100784.19;5051874;28;20041;-59
2023/04/08 11:33:01;;;;;;;4.90;4.22;;;;;;;13.31;47.77;100779.16;5052597;28;20053;-63
2023/04/08 11:35:30;;;;;;;6.65;3.97;;;;;;;13.55;48.39;100784.31;5052321;28;20039;-61
2023/04/08 11:37:57;;;;;;;6.20;3.60;;;;;;;13.61;47.88;100785.44;5052212;28;20046;-61
2023/04/08 11:40:23;;;;;;;4.82;3.85;;;;;;;13.36;49.29;100783.97;5052348;28;20033;-62
2023/04/08 11:42:52;;;;;;;6.90;3.97;;;;;;;13.11;45.76;100783.28;5052358;28;20482;-61
2023/04/08 11:45:20;;;;;;;4.90;3.78;;;;;;;12.57;46.40;100794.72;5052115;28;20033;-60
2023/04/08 11:47:46;;;;;;;5.30;3.80;;;;;;;12.36;46.34;100784.63;5052012;28;20068;-61
2023/04/08 11:50:11;;;;;;;5.07;3.47;;;;;;;12.40;46.58;100790.47;5051769;28;20083;-60
2023/04/08 11:52:48;;;;;;;5.85;3.83;;;;;;;12.26;46.15;100784.00;5051884;28;20033;-60
2023/04/08 11:55:28;;;;;;;4.97;3.72;;;;;;;12.49;45.42;100786.75;5052138;28;20437;-61
2023/04/08 11:57:55;;;;;;;6.25;4.05;;;;;;;12.49;47.26;100786.75;5051720;28;20036;-60
2023/04/08 12:00:22;;;;;;;6.13;4.45;;;;;;;12.78;45.76;100783.47;5052255;28;20061;-60
2023/04/08 12:02:48;;;;;;;5.33;3.70;;;;;;;12.95;46.18;100784.19;5052022;28;20068;-60
2023/04/08 12:05:15;;;;;;;5.05;3.70;;;;;;;13.12;48.55;100783.09;5051827;28;20120;-60
2023/04/08 12:07:41;;;;;;;5.53;4.05;;;;;;;13.19;47.65;100789.41;5051625;28;20098;-61
2023/04/08 12:10:07;;;;;;;5.78;3.50;;;;;;;13.07;46.12;100787.31;5051854;28;20037;-61
2023/04/08 12:12:33;;;;;;;5.80;3.65;;;;;;;13.51;46.42;100788.38;5051725;28;20051;-62
2023/04/08 12:14:58;;;;;;;5.78;3.50;;;;;;;13.86;44.63;100783.41;5051794;28;20036;-61
2023/04/08 12:17:24;;;;;;;5.00;3.72;;;;;;;13.73;44.47;100784.00;5051519;28;20323;-62
2023/04/08 12:19:50;;;;;;;4.72;3.70;;;;;;;13.44;46.73;100789.28;5051847;28;20040;-63
2023/04/08 12:22:15;;;;;;;5.43;3.72;;;;;;;13.52;45.90;100787.38;5051645;28;20174;-61
2023/04/08 12:24:41;;;;;;;6.43;3.97;;;;;;;13.73;47.34;100784.00;5051672;28;20029;-60
2023/04/08 12:27:06;;;;;;;5.75;3.90;;;;;;;13.67;50.48;100783.91;5051306;28;20612;-61
2023/04/08 12:29:32;;;;;;;7.07;4.55;;;;;;;13.51;47.50;100787.56;5051680;28;20033;-62
2023/04/08 12:31:57;;;;;;;6.15;4.28;;;;;;;13.68;47.80;100786.38;5051557;28;20498;-61
2023/04/08 12:34:23;;;;;;;5.25;3.95;;;;;;;13.80;50.43;100787.63;5051625;28;20465;-61
2023/04/08 12:36:49;;;;;;;5.65;4.38;;;;;;;13.55;51.20;100783.47;5051458;28;20040;-60
2023/04/08 12:39:14;;;;;;;6.43;4.50;;;;;;;13.41;50.67;100778.91;5050247;28;20542;-61
2023/04/08 12:41:40;;;;;;;6.68;4.00;;;;;;;13.67;49.86;100790.09;5051473;28;20390;-62
2023/04/08 12:44:05;;;;;;;5.82;4.13;;;;;;;13.43;49.86;100780.44;5055121;28;20037;-60
2023/04/08 12:46:31;;;;;;;5.32;3.88;;;;;;;13.66;46.91;100792.94;5055573;28;20043;-60
2023/04/08 12:48:56;;;;;;;6.00;3.55;;;;;;;13.63;46.41;100787.94;5055208;28;20032;-61
2023/04/08 12:51:22;;;;;;;6.18;4.07;;;;;;;13.99;45.82;100793.50;5055393;28;20127;-60
2023/04/08 12:53:47;;;;;;;6.10;4.05;;;;;;;13.90;45.81;100798.09;5055439;28;20040;-61
2023/04/08 12:56:13;;;;;;;5.47;4.03;;;;;;;14.07;45.32;100793.41;5055215;28;20398;-61
2023/04/08 12:58:38;;;;;;;5.53;3.63;;;;;;;13.91;46.96;100796.25;5054949;28;20112;-61
2023/04/08 13:01:05;;;;;;;5.75;3.95;;;;;;;13.83;43.54;100794.47;5055190;28;20490;-61
2023/04/08 13:03:30;;;;;;;5.20;3.70;;;;;;;13.55;44.39;100783.47;5055119;28;20072;-61
2023/04/08 13:05:57;;;;;;;4.45;3.25;;;;;;;13.91;44.33;100796.25;5055188;28;20075;-62
2023/04/08 13:08:23;;;;;;;5.70;3.80;;;;;;;13.75;42.81;100787.31;5054997;28;20037;-61
2023/04/08 13:10:49;;;;;;;4.75;3.72;;;;;;;13.67;42.13;100795.44;5055106;28;20128;-62
2023/04/08 13:13:14;;;;;;;7.38;3.90;;;;;;;12.84;45.24;100777.41;5055106;28;20132;-62
2023/04/08 13:15:40;;;;;;;6.25;3.90;;;;;;;12.96;44.04;100792.03;5054982;28;20036;-59
2023/04/08 13:18:05;;;;;;;6.70;4.13;;;;;;;13.05;43.93;100792.84;5054618;28;20512;-62
2023/04/08 13:20:31;;;;;;;6.13;4.25;;;;;;;13.34;42.55;100780.66;5055633;28;20102;-60
2023/04/08 13:22:56;;;;;;;5.75;3.88;;;;;;;13.78;43.10;100786.97;5055143;28;20057;-63
2023/04/08 13:25:21;;;;;;;5.35;3.90;;;;;;;13.58;43.02;100792.00;5054836;28;20625;-61
2023/04/08 13:27:47;;;;;;;4.93;3.35;;;;;;;14.03;45.80;100784.91;5053250;28;20051;-61
2023/04/08 13:30:12;;;;;;;4.20;3.35;;;;;;;14.36;41.37;100780.03;5054851;28;20041;-61
2023/04/08 13:32:38;;;;;;;6.32;3.78;;;;;;;14.59;41.64;100782.63;5054656;28;20048;-62
2023/04/08 13:35:04;;;;;;;5.72;3.53;;;;;;;15.10;42.61;100779.94;5054786;28;20124;-63
2023/04/08 13:37:29;;;;;;;4.72;3.40;;;;;;;15.19;40.04;100777.97;5054353;28;20063;-63
2023/04/08 13:39:56;;;;;;;4.35;3.17;;;;;;;15.19;39.44;100775.28;5054642;28;20049;-60
2023/04/08 13:42:21;;;;;;;4.72;3.45;;;;;;;14.82;40.75;100777.16;5054731;28;20089;-63
2023/04/08 13:44:47;;;;;;;4.68;3.60;;;;;;;14.69;41.57;100781.53;5054593;28;20052;-61
2023/04/08 13:47:12;;;;;;;4.85;3.15;;;;;;;14.14;42.50;100786.28;5054155;28;20187;-61
2023/04/08 13:49:38;;;;;;;3.42;3.10;;;;;;;14.43;40.89;100781.97;5054465;28;20048;-61
2023/04/08 13:52:03;;;;;;;3.60;3.10;;;;;;;14.12;41.72;100767.72;5054459;28;20033;-62
2023/04/08 13:54:28;;;;;;;4.47;3.28;;;;;;;14.10;41.65;100777.81;5053853;28;20486;-61
2023/04/08 13:56:54;;;;;;;3.90;2.75;;;;;;;14.08;40.83;100776.31;5054238;28;20485;-59
2023/04/08 13:59:20;;;;;;;3.58;2.70;;;;;;;13.81;42.66;100773.22;5054140;28;20178;-61
2023/04/08 14:01:45;;;;;;;3.35;2.50;;;;;;;13.33;45.56;100782.50;5054232;28;20037;-61
2023/04/08 14:04:10;;;;;;;3.08;2.25;;;;;;;13.14;45.44;100783.75;5054596;28;20037;-61
2023/04/08 14:06:36;;;;;;;3.70;2.45;;;;;;;13.49;44.73;100782.34;5054462;28;20119;-62
2023/04/08 14:09:01;;;;;;;2.85;2.15;;;;;;;13.33;46.62;100781.66;5053830;28;20125;-59
2023/04/08 14:11:27;;;;;;;2.95;2.53;;;;;;;12.84;47.89;100774.72;5054035;28;20043;-62
2023/04/08 14:13:52;;;;;;;3.78;2.47;;;;;;;13.08;46.75;100779.09;5054064;28;20060;-61
2023/04/08 14:16:18;;;;;;;3.78;2.70;;;;;;;13.25;46.37;100785.22;5054034;28;20402;-61
2023/04/08 14:18:44;;;;;;;3.63;2.90;;;;;;;13.04;49.02;100773.28;5053697;28;20033;-61
2023/04/08 14:21:09;;;;;;;4.15;2.90;;;;;;;13.37;47.70;100767.75;5053869;28;20037;-61
2023/04/08 14:23:35;;;;;;;3.10;2.60;;;;;;;13.38;51.17;100774.78;5053789;28;20044;-61
2023/04/08 14:26:01;;;;;;;3.97;2.80;;;;;;;13.74;50.58;100774.97;5053786;28;20079;-62
2023/04/08 14:28:26;;;;;;;3.53;2.92;;;;;;;13.44;48.15;100768.72;5053497;28;20132;-61
2023/04/08 14:30:51;;;;;;;4.35;3.03;;;;;;;13.16;48.10;100776.38;5053699;28;20099;-59
2023/04/08 14:33:17;;;;;;;3.70;3.05;;;;;;;13.04;50.08;100777.81;5053725;28;20037;-62
2023/04/08 14:35:42;;;;;;;3.80;2.92;;;;;;;13.09;49.29;100778.09;5053566;28;20051;-60
2023/04/08 14:38:08;;;;;;;3.92;3.22;;;;;;;13.26;50.30;100768.16;5052108;28;20047;-61
2023/04/08 14:40:33;;;;;;;5.32;3.55;;;;;;;13.24;49.87;100767.53;5053463;28;20044;-61
2023/04/08 14:42:58;;;;;;;4.13;3.17;;;;;;;13.19;54.04;100783.22;5053532;28;20048;-61
2023/04/08 14:45:24;;;;;;;3.67;2.97;;;;;;;13.29;52.79;100776.66;5053492;28;20050;-61
2023/04/08 14:47:49;;;;;;;4.70;3.47;;;;;;;13.17;51.63;100778.06;5053051;28;20098;-62
2023/04/08 14:50:15;;;;;;;6.50;3.65;;;;;;;13.05;54.70;100774.13;5053357;28;20048;-62
2023/04/08 14:52:41;;;;;;;3.90;2.78;;;;;;;13.22;53.18;100777.53;5053166;28;20037;-61
2023/04/08 14:55:06;;;;;;;4.10;3.25;;;;;;;13.55;51.47;100775.47;5053274;28;20041;-62
2023/04/08 14:57:32;;;;;;;2.70;2.42;;;;;;;13.37;55.96;100764.25;5052794;28;20029;-62
2023/04/08 14:59:58;;;;;;;3.53;2.75;;;;;;;13.77;51.36;100769.25;5053237;28;20524;-61
2023/04/08 15:02:23;;;;;;;5.25;3.03;;;;;;;13.88;55.28;100778.69;5052996;28;20060;-62
2023/04/08 15:04:49;;;;;;;3.20;2.75;;;;;;;14.03;52.97;100774.19;5052431;28;20064;-63
2023/04/08 15:07:14;;;;;;;4.43;3.03;;;;;;;14.03;52.76;100771.53;5052359;28;20051;-61
2023/04/08 15:09:40;;;;;;;3.60;3.20;;;;;;;13.79;51.46;100769.06;5053003;28;20107;-64
2023/04/08 15:12:06;;;;;;;6.22;3.60;;;;;;;13.70;52.31;100764.81;5052776;28;20398;-61
2023/04/08 15:14:31;;;;;;;4.78;3.22;;;;;;;13.64;53.37;100770.88;5052777;28;20043;-62
2023/04/08 15:16:57;;;;;;;4.30;2.78;;;;;;;13.93;52.20;100767.44;5052468;28;20080;-62
2023/04/08 15:19:22;;;;;;;4.32;3.08;;;;;;;13.99;51.56;100770.22;5052632;28;20045;-62
2023/04/08 15:21:48;;;;;;;3.63;3.05;;;;;;;13.39;54.06;100768.41;5052520;28;20053;-62
2023/04/08 15:24:13;;;;;;;3.83;2.67;;;;;;;13.27;54.25;100767.97;5052640;28;20501;-64
2023/04/08 15:26:39;;;;;;;3.28;2.60;;;;;;;13.24;55.10;100783.56;5052499;28;20043;-61
2023/04/08 15:29:05;;;;;;;3.55;2.75;;;;;;;13.47;53.28;100783.56;5052401;28;20036;-62
2023/04/08 15:31:31;;;;;;;4.20;3.22;;;;;;;13.60;52.55;100786.47;5052515;28;20049;-63
2023/04/08 15:33:57;;;;;;;3.13;2.53;;;;;;;13.65;52.93;100788.59;5052423;28;20045;-63
2023/04/08 15:36:23;;;;;;;3.50;2.33;;;;;;;13.53;54.31;100786.34;5052352;28;20048;-63
2023/04/08 15:38:48;;;;;;;4.38;2.55;;;;;;;13.39;56.77;100783.63;5052125;28;20414;-58
2023/04/08 15:41:16;;;;;;;2.83;2.22;;;;;;;13.11;55.36;100780.63;5052468;28;20040;-57